North Pole, AK (99705)

2:10 PM AKST on January 21, 2017 (GMT -0900)
slaternorthp | | Change Station

Elev 450 ft 64.75 °N, 147.36 °W | Updated 6 seconds ago

Partly Cloudy
Partly Cloudy
-15.6 °F
Feels Like -16 °F
N
0.0
Wind Variable Wind from West

Today
High -- | Low -- °F
--% Chance of Precip.
Yesterday
High -- | Low -- °F
Precip. -- in
Pressure 29.96 in
Visibility 10.0 miles
Clouds Mostly Cloudy 6000 ft
Windchill -16 °F
Dew Point -18 °F
Humidity 86%
Rainfall 0.00 in
Snow Depth Not available.
10:06 AM 3:56 PM
Waning Crescent, 31% visible
METAR PAEI 212258Z 00000KT 10SM BKN060 M25/M29 A2990 RMK AO2A SNE42 SLP146 P0000 T12551294 $
Pressure 29.96 in
Visibility 10.0 miles
Clouds Mostly Cloudy 6000 ft
Windchill -16 °F
Dew Point -18 °F
Humidity 86%
Rainfall 0.00 in
Snow Depth Not available.
10:06 AM 3:56 PM
Waning Crescent, 31% visible
METAR PAEI 212258Z 00000KT 10SM BKN060 M25/M29 A2990 RMK AO2A SNE42 SLP146 P0000 T12551294 $

Get Your Daily Forecast Email!

Thanks for signing up!

Be on the lookout for a verification email in your inbox.

You'll start receiving the daily forecast at 8 AM.

×

10-Day Weather Forecast

Almanac

Astronomy

Jan. 21, 2017 Rise Set
Actual Time
Civil Twilight
Nautical Twilight
Astronomical Twilight
Moon
Length of Visible Light
Length of Day
Tomorrow will be .
, % of the Moon is Illuminated

Today's Extremes

State Highs State Lows

Community

WunderPhotos

Upload Photos

1,962,540 photos uploaded!

WunderBlog® & News

Nearby

Air Quality

  Air Quality AQ Index Pollutant
Not available.

Snow Depth

Station Depth Elevation

Earthquake Activity

City Distance Mag. Time & Date
Minimum magnitude displayed is 2.5.

Coastal Water Temperatures

Place Temperature

Stations

Nearby Weather Stations

Station Location Temp. Windchill Dew Point Humidity Wind Precip. Elev Updated Type
                   

Watches & Warnings

There are currently no watches in effect.